Aviation Digital Data Service (ADDS)

Output produced by METARs form (1010 UTC 30 August 2014)
found at http://aviationweather.gov/adds/metars/
 
METAR text: KBFM 300953Z 18006KT 10SM CLR 28/25 A3005 RMK AO2 SLP174 T02780250
Conditions at: KBFM (MOBILE/BROOKLEY , AL, US) observed 0953 UTC 30 August 2014
Temperature: 27.8°C (82°F)
Dewpoint: 25.0°C (77°F) [RH = 85%]
Pressure (altimeter): 30.05 inches Hg (1017.7 mb)
[Sea-level pressure: 1017.4 mb]
Winds: from the S (180 degrees) at 7 MPH (6 knots; 3.1 m/s)
Visibility: 10 or more miles (16+ km)
Ceiling: at least 12,000 feet AGL
Clouds: sky clear below 12,000 feet AGL
Weather: no significant weather observed at this time